createdAt,value
2019-02-05T00:02:46.855Z,-1.04
2019-02-05T00:10:37.898Z,-1.14
2019-02-05T00:13:26.245Z,-1.11
2019-02-05T00:18:29.280Z,-1.15
2019-02-05T00:20:58.028Z,-1.11
2019-02-05T00:23:26.883Z,-1.18
2019-02-05T00:26:05.993Z,-1.18
2019-02-05T00:31:13.754Z,-1.23
2019-02-05T00:34:01.611Z,-1.27
2019-02-05T00:36:30.335Z,-1.31
2019-02-05T00:39:18.561Z,-1.21
2019-02-05T00:41:47.255Z,-1.24
2019-02-05T00:44:17.690Z,-1.23
2019-02-05T00:46:46.410Z,-1.32
2019-02-05T00:49:15.195Z,-1.33
2019-02-05T00:54:31.581Z,-1.43
2019-02-05T00:57:00.284Z,-1.37
2019-02-05T00:59:29.046Z,-1.41
2019-02-05T01:01:57.845Z,-1.31
2019-02-05T01:07:01.145Z,-1.39
2019-02-05T01:09:31.557Z,-1.36
2019-02-05T01:14:55.008Z,-1.20
2019-02-05T01:17:42.844Z,-1.27
2019-02-05T01:20:51.358Z,-1.26
2019-02-05T01:23:20.105Z,-1.44
2019-02-05T01:30:56.469Z,-1.67
2019-02-05T01:33:25.211Z,-1.71
2019-02-05T01:35:53.926Z,-1.68
2019-02-05T01:38:22.651Z,-1.72
2019-02-05T01:40:51.346Z,-1.68
2019-02-05T01:43:20.197Z,-1.80
2019-02-05T01:45:48.923Z,-1.72
2019-02-05T01:48:36.894Z,-1.81
2019-02-05T01:51:05.707Z,-1.85
2019-02-05T01:53:34.473Z,-1.88
2019-02-05T01:56:03.259Z,-1.89
2019-02-05T01:58:51.081Z,-1.93
2019-02-05T02:06:47.396Z,-2.15
2019-02-05T02:09:16.236Z,-2.22
2019-02-05T02:14:32.598Z,-2.35
2019-02-05T02:17:01.338Z,-2.38
2019-02-05T02:19:31.779Z,-2.42
2019-02-05T02:22:19.730Z,-2.48
2019-02-05T02:25:07.709Z,-2.50
2019-02-05T02:27:36.358Z,-2.55
2019-02-05T02:30:44.842Z,-2.46
2019-02-05T02:38:24.140Z,-2.71
2019-02-05T02:40:52.886Z,-2.66
2019-02-05T02:43:21.596Z,-2.48
2019-02-05T02:45:50.313Z,-2.35
2019-02-05T02:48:19.020Z,-2.47
2019-02-05T02:51:06.907Z,-2.75
2019-02-05T02:53:35.622Z,-2.86
2019-02-05T02:56:04.322Z,-2.90
2019-02-05T03:01:22.735Z,-2.95
2019-02-05T03:04:10.542Z,-2.92
2019-02-05T03:06:41.113Z,-2.99
2019-02-05T03:09:49.558Z,-3.10
2019-02-05T03:14:52.702Z,-3.21
2019-02-05T03:17:21.374Z,-3.27
2019-02-05T03:19:50.072Z,-3.22
2019-02-05T03:25:32.218Z,-3.32
2019-02-05T03:28:01.035Z,-3.33
2019-02-05T03:30:29.701Z,-3.22
2019-02-05T03:32:58.497Z,-3.06
2019-02-05T03:35:27.203Z,-3.01
2019-02-05T03:37:57.592Z,-3.07
2019-02-05T03:41:04.788Z,-3.18
2019-02-05T03:49:16.200Z,-3.38
2019-02-05T03:52:24.698Z,-3.46
2019-02-05T03:55:33.247Z,-3.16
2019-02-05T03:58:40.441Z,-3.42
2019-02-05T04:01:47.758Z,-3.51
2019-02-05T04:04:56.222Z,-3.40
2019-02-05T04:08:03.487Z,-3.29
2019-02-05T04:11:10.786Z,-3.33
2019-02-05T04:14:18.011Z,-3.56
2019-02-05T04:17:25.193Z,-3.70
2019-02-05T04:20:34.103Z,-3.71
2019-02-05T04:23:41.346Z,-3.66
2019-02-05T04:26:48.572Z,-3.74
2019-02-05T04:29:57.024Z,-3.85
2019-02-05T04:33:05.976Z,-3.77
2019-02-05T04:36:16.189Z,-3.93
2019-02-05T04:39:24.679Z,-3.94
2019-02-05T04:42:34.648Z,-3.96
2019-02-05T04:45:40.823Z,-4.02
2019-02-05T04:48:49.308Z,-4.06
2019-02-05T04:51:57.793Z,-4.12
2019-02-05T04:55:05.018Z,-4.05
2019-02-05T04:58:13.562Z,-3.84
2019-02-05T05:01:22.029Z,-3.87
2019-02-05T05:04:29.256Z,-3.82
2019-02-05T05:07:37.011Z,-4.05
2019-02-05T05:10:45.751Z,-4.05
2019-02-05T05:13:33.538Z,-4.09
2019-02-05T05:16:42.020Z,-4.20
2019-02-05T05:24:33.054Z,-4.16
2019-02-05T05:27:41.565Z,-4.23
2019-02-05T05:30:50.038Z,-4.24
2019-02-05T05:33:37.879Z,-4.26
2019-02-05T05:36:46.374Z,-4.33
2019-02-05T05:39:34.200Z,-4.38
2019-02-05T05:42:22.161Z,-4.43
2019-02-05T05:44:50.831Z,-4.44
2019-02-05T05:47:38.792Z,-4.37
2019-02-05T05:50:47.272Z,-4.28
2019-02-05T05:53:15.938Z,-4.36
2019-02-05T05:56:03.912Z,-4.41
2019-02-05T06:01:07.492Z,-4.44
2019-02-05T06:03:36.203Z,-4.46
2019-02-05T06:06:44.768Z,-4.48
2019-02-05T06:09:33.239Z,-4.56
2019-02-05T06:12:01.950Z,-4.57
2019-02-05T06:14:30.627Z,-4.46
2019-02-05T06:19:33.789Z,-4.54
2019-02-05T06:22:21.743Z,-4.61
2019-02-05T06:25:09.624Z,-4.57
2019-02-05T06:27:38.287Z,-4.55
2019-02-05T06:30:26.293Z,-4.44
2019-02-05T06:33:14.213Z,-4.50
2019-02-05T06:35:42.928Z,-4.58
2019-02-05T06:38:11.577Z,-4.68
2019-02-05T06:40:59.537Z,-4.73
2019-02-05T06:43:47.507Z,-4.72
2019-02-05T06:46:35.482Z,-4.76
2019-02-05T06:51:59.122Z,-4.64
2019-02-05T06:54:27.793Z,-4.63
2019-02-05T06:57:15.605Z,-4.45
2019-02-05T07:00:03.578Z,-4.39
2019-02-05T07:02:53.186Z,-4.35
2019-02-05T07:05:41.042Z,-4.47
2019-02-05T07:10:44.225Z,-4.59
2019-02-05T07:16:06.296Z,-4.33
2019-02-05T07:18:54.191Z,-4.25
2019-02-05T07:21:22.885Z,-4.13
2019-02-05T07:23:51.588Z,-3.87
2019-02-05T07:26:21.974Z,-3.78
2019-02-05T07:28:58.140Z,-3.67
2019-02-05T07:31:40.332Z,-3.51
2019-02-05T07:34:48.821Z,-3.32
2019-02-05T07:37:36.728Z,-3.13
2019-02-05T07:40:45.204Z,-3.04
2019-02-05T07:43:33.000Z,-3.05
2019-02-05T07:46:20.956Z,-3.08
2019-02-05T07:49:08.948Z,-3.07
2019-02-05T07:51:56.870Z,-2.84
2019-02-05T07:54:46.454Z,-2.75
2019-02-05T07:57:34.339Z,-2.79
2019-02-05T08:00:44.545Z,-2.82
2019-02-05T08:03:32.648Z,-2.83
2019-02-05T08:06:20.628Z,-2.77
2019-02-05T08:08:49.293Z,-2.69
2019-02-05T08:14:10.875Z,-2.52
2019-02-05T08:16:39.607Z,-2.40
2019-02-05T08:19:08.317Z,-2.19
2019-02-05T08:21:56.283Z,-2.01
2019-02-05T08:24:44.147Z,-1.94
2019-02-05T08:27:32.108Z,-1.76
2019-02-05T08:30:19.957Z,-1.64
2019-02-05T08:33:07.940Z,-1.80
2019-02-05T08:35:36.639Z,-1.92
2019-02-05T08:38:45.127Z,-1.79
2019-02-05T08:44:01.471Z,-1.71
2019-02-05T08:46:50.972Z,-1.51
2019-02-05T08:52:13.160Z,-1.38
2019-02-05T08:54:41.897Z,-1.25
2019-02-05T08:57:10.619Z,-1.17
2019-02-05T08:59:39.279Z,-1.08
2019-02-05T09:02:28.703Z,-1.17
2019-02-05T09:05:16.598Z,-1.07
2019-02-05T09:08:04.448Z,-0.85
2019-02-05T09:10:52.416Z,-0.65
2019-02-05T09:13:21.070Z,-0.51
2019-02-05T09:15:49.784Z,-0.42
2019-02-05T09:18:37.630Z,-0.22
2019-02-05T09:21:06.339Z,-0.02
2019-02-05T09:23:36.717Z,0.03
2019-02-05T09:26:05.379Z,0.33
2019-02-05T09:29:13.933Z,0.48
2019-02-05T09:31:44.361Z,0.69
2019-02-05T09:34:32.282Z,0.82
2019-02-05T09:37:01.058Z,0.86
2019-02-05T09:39:29.794Z,1.22
2019-02-05T09:41:58.515Z,1.34
2019-02-05T09:44:31.490Z,1.61
2019-02-05T09:46:59.267Z,1.45
2019-02-05T09:49:27.953Z,1.36
2019-02-05T09:51:56.607Z,1.50
2019-02-05T09:54:25.307Z,1.51
2019-02-05T09:56:53.974Z,1.65
2019-02-05T09:59:22.676Z,1.58
2019-02-05T10:01:51.554Z,1.66
2019-02-05T10:04:20.257Z,1.87
2019-02-05T10:06:50.112Z,1.81
2019-02-05T10:09:19.415Z,1.72
2019-02-05T10:11:48.176Z,1.89
2019-02-05T10:14:16.886Z,2.34
2019-02-05T10:16:45.671Z,2.79
2019-02-05T10:19:14.412Z,2.87
2019-02-05T10:21:43.117Z,2.96
2019-02-05T10:24:11.789Z,3.52
2019-02-05T10:26:40.598Z,3.80
2019-02-05T10:29:09.319Z,4.10
2019-02-05T10:31:38.130Z,4.06
2019-02-05T10:34:06.842Z,4.30
2019-02-05T10:36:35.623Z,4.47
2019-02-05T10:39:44.064Z,4.43
2019-02-05T10:42:12.755Z,4.59
2019-02-05T10:45:00.707Z,4.88
2019-02-05T10:47:29.427Z,4.97
2019-02-05T10:49:58.083Z,5.16
2019-02-05T10:52:26.783Z,5.07
2019-02-05T10:54:55.446Z,5.46
2019-02-05T10:57:24.154Z,5.44
2019-02-05T10:59:54.483Z,5.79
2019-02-05T11:02:23.211Z,5.38
2019-02-05T11:04:51.892Z,5.22
2019-02-05T11:07:20.547Z,5.48
2019-02-05T11:09:49.257Z,5.81
2019-02-05T11:12:18.006Z,6.33
2019-02-05T11:15:05.982Z,6.07
2019-02-05T11:17:34.695Z,5.75
2019-02-05T11:25:53.383Z,5.85
2019-02-05T11:28:41.357Z,6.18
2019-02-05T11:31:10.085Z,6.47
2019-02-05T11:33:58.028Z,6.48
2019-02-05T11:36:26.674Z,6.82
2019-02-05T11:38:55.486Z,6.80
2019-02-05T11:41:24.127Z,6.89
2019-02-05T11:43:52.818Z,7.46
2019-02-05T11:46:21.522Z,7.58
2019-02-05T11:48:50.260Z,7.89
2019-02-05T11:51:18.959Z,8.02
2019-02-05T11:53:47.617Z,8.01
2019-02-05T11:56:16.306Z,7.84
2019-02-05T11:58:44.961Z,7.72
2019-02-05T12:04:08.122Z,7.69
2019-02-05T12:06:36.800Z,7.84
2019-02-05T12:09:47.010Z,7.95
2019-02-05T12:12:15.702Z,8.16
2019-02-05T12:14:44.352Z,8.00
2019-02-05T12:17:14.767Z,7.97
2019-02-05T12:19:43.461Z,8.08
2019-02-05T12:22:12.173Z,7.62
2019-02-05T12:24:40.827Z,7.12
2019-02-05T12:27:09.516Z,7.34
2019-02-05T12:29:38.164Z,8.03
2019-02-05T12:32:26.214Z,8.38
2019-02-05T12:34:54.906Z,8.20
2019-02-05T12:37:23.594Z,8.54
2019-02-05T12:40:11.563Z,8.59
2019-02-05T12:42:42.031Z,8.20
2019-02-05T12:45:50.507Z,8.73
2019-02-05T12:48:19.163Z,8.93
2019-02-05T12:50:49.577Z,8.72
2019-02-05T12:53:18.375Z,8.65
2019-02-05T12:55:47.017Z,8.47
2019-02-05T12:58:15.715Z,8.59
2019-02-05T13:01:03.715Z,8.60
2019-02-05T13:03:32.491Z,8.84
2019-02-05T13:06:01.202Z,9.10
2019-02-05T13:08:29.927Z,9.25
2019-02-05T13:10:58.582Z,9.24
2019-02-05T13:13:27.275Z,9.15
2019-02-05T13:16:15.066Z,9.00
2019-02-05T13:18:43.750Z,9.44
2019-02-05T13:21:12.475Z,9.71
2019-02-05T13:23:41.192Z,9.98
2019-02-05T13:29:37.311Z,9.79
2019-02-05T13:35:14.497Z,9.07
2019-02-05T13:40:51.417Z,9.70
2019-02-05T13:43:20.078Z,9.45
2019-02-05T13:46:28.575Z,10.17
2019-02-05T13:48:57.224Z,10.38
2019-02-05T13:51:25.940Z,9.65
2019-02-05T13:53:56.354Z,9.42
2019-02-05T13:56:25.110Z,9.56
2019-02-05T13:58:53.798Z,9.22
2019-02-05T14:01:22.472Z,8.87
2019-02-05T14:03:51.171Z,9.20
2019-02-05T14:06:19.872Z,9.46
2019-02-05T14:08:48.525Z,9.58
2019-02-05T14:11:17.205Z,9.77
2019-02-05T14:13:45.956Z,9.22
2019-02-05T14:16:54.427Z,8.79
2019-02-05T14:19:23.127Z,8.17
2019-02-05T14:21:51.820Z,7.84
2019-02-05T14:24:20.593Z,8.32
2019-02-05T14:26:49.342Z,8.75
2019-02-05T14:29:17.990Z,9.06
2019-02-05T14:31:46.718Z,9.20
2019-02-05T14:37:03.063Z,8.06
2019-02-05T14:39:51.126Z,8.03
2019-02-05T14:42:19.792Z,8.57
2019-02-05T14:44:48.582Z,8.59
2019-02-05T14:47:17.351Z,8.88
2019-02-05T14:49:46.068Z,8.87
2019-02-05T14:52:14.790Z,8.69
2019-02-05T14:54:43.447Z,9.02
2019-02-05T14:57:13.862Z,8.27
2019-02-05T14:59:42.521Z,8.58
2019-02-05T15:02:11.213Z,8.12
2019-02-05T15:04:39.938Z,8.07
2019-02-05T15:07:27.823Z,8.19
2019-02-05T15:09:56.517Z,8.25
2019-02-05T15:12:25.212Z,8.01
2019-02-05T15:15:13.124Z,8.04
2019-02-05T15:17:41.819Z,8.33
2019-02-05T15:20:52.020Z,9.13
2019-02-05T15:24:00.511Z,9.64
2019-02-05T15:26:48.407Z,9.68
2019-02-05T15:29:18.850Z,10.34
2019-02-05T15:31:54.336Z,10.88
2019-02-05T15:39:47.077Z,10.68
2019-02-05T15:42:15.736Z,10.56
2019-02-05T15:45:03.685Z,9.90
2019-02-05T15:47:32.450Z,9.71
2019-02-05T15:50:06.033Z,9.32
2019-02-05T15:52:31.724Z,8.48
2019-02-05T15:55:02.073Z,8.11
2019-02-05T15:57:50.075Z,7.65
2019-02-05T16:00:39.709Z,7.21
2019-02-05T16:03:48.130Z,6.80
2019-02-05T16:06:36.123Z,6.40
2019-02-05T16:09:44.574Z,6.06
2019-02-05T16:12:13.244Z,5.69
2019-02-05T16:14:43.666Z,5.29
2019-02-05T16:17:12.319Z,5.01
2019-02-05T16:19:41.073Z,4.57
2019-02-05T16:22:11.503Z,4.32
2019-02-05T16:24:40.187Z,4.16
2019-02-05T16:27:08.886Z,4.07
2019-02-05T16:29:56.792Z,3.95
2019-02-05T16:32:25.498Z,3.84
2019-02-05T16:35:13.295Z,3.63
2019-02-05T16:38:02.565Z,3.52
2019-02-05T16:41:10.996Z,3.31
2019-02-05T16:43:39.678Z,3.18
2019-02-05T16:46:20.395Z,3.09
2019-02-05T16:48:38.858Z,2.91
2019-02-05T16:51:07.601Z,2.74
2019-02-05T16:53:43.490Z,2.64
2019-02-05T16:56:12.188Z,2.50
2019-02-05T16:58:40.883Z,2.46
2019-02-05T17:01:09.532Z,2.38
2019-02-05T17:03:38.241Z,2.32
2019-02-05T17:06:06.902Z,2.23
2019-02-05T17:08:54.746Z,2.15
2019-02-05T17:11:23.442Z,2.08
2019-02-05T17:13:53.942Z,1.99
2019-02-05T17:19:26.449Z,1.88
2019-02-05T17:21:56.883Z,1.81
2019-02-05T17:24:25.696Z,1.77
2019-02-05T17:26:54.406Z,1.74
2019-02-05T17:29:23.074Z,1.62
2019-02-05T17:31:51.845Z,1.86
2019-02-05T17:34:20.529Z,2.09
2019-02-05T17:36:49.254Z,1.81
2019-02-05T17:39:17.986Z,1.44
2019-02-05T17:44:41.772Z,1.05
2019-02-05T17:47:10.512Z,0.87
2019-02-05T17:49:58.338Z,0.76
2019-02-05T17:52:26.976Z,0.70
2019-02-05T17:54:55.668Z,0.68
2019-02-05T17:57:24.330Z,0.65
2019-02-05T17:59:54.737Z,0.69
2019-02-05T18:02:23.409Z,0.56
2019-02-05T18:05:11.285Z,0.57
2019-02-05T18:07:39.993Z,0.77
2019-02-05T18:10:48.439Z,0.60
2019-02-05T18:13:17.124Z,0.40
2019-02-05T18:15:45.837Z,0.26
2019-02-05T18:18:16.285Z,0.38
2019-02-05T18:20:45.153Z,0.57
2019-02-05T18:23:13.854Z,0.58
2019-02-05T18:26:01.853Z,0.64
2019-02-05T18:28:31.122Z,0.44
2019-02-05T18:31:00.951Z,0.22
2019-02-05T18:33:48.904Z,0.32
2019-02-05T18:36:36.869Z,0.23
2019-02-05T18:39:45.317Z,0.18
2019-02-05T18:42:14.024Z,0.06
2019-02-05T18:47:38.692Z,-0.12
2019-02-05T18:50:47.629Z,-0.02
2019-02-05T18:53:16.335Z,0.20
2019-02-05T18:56:24.996Z,0.03
2019-02-05T18:58:53.715Z,-0.01
2019-02-05T19:01:22.507Z,0.14
2019-02-05T19:03:51.212Z,0.02
2019-02-05T19:06:59.679Z,0.11
2019-02-05T19:09:28.393Z,-0.14
2019-02-05T19:11:57.064Z,-0.31
2019-02-05T19:14:25.882Z,-0.38
2019-02-05T19:16:56.378Z,-0.11
2019-02-05T19:19:25.043Z,-0.12
2019-02-05T19:22:12.985Z,-0.25
2019-02-05T19:27:37.010Z,-0.42
2019-02-05T19:30:45.459Z,-0.53
2019-02-05T19:33:14.177Z,-0.56
2019-02-05T19:35:43.420Z,-0.31
2019-02-05T19:38:13.514Z,-0.25
2019-02-05T19:40:42.554Z,-0.34
2019-02-05T19:43:11.383Z,-0.22
2019-02-05T19:46:00.903Z,-0.44
2019-02-05T19:51:05.092Z,-0.76
2019-02-05T19:56:07.675Z,-0.67
2019-02-05T20:01:25.756Z,-0.59
2019-02-05T20:03:54.430Z,-0.74
2019-02-05T20:06:42.647Z,-0.82
2019-02-05T20:09:51.301Z,-0.95
2019-02-05T20:12:20.022Z,-1.01
2019-02-05T20:14:50.475Z,-0.82
2019-02-05T20:17:38.423Z,-0.91
2019-02-05T20:20:26.413Z,-1.05
2019-02-05T20:23:14.887Z,-1.07
2019-02-05T20:25:43.575Z,-1.04
2019-02-05T20:28:12.290Z,-1.05
2019-02-05T20:30:41.152Z,-1.12
2019-02-05T20:33:09.944Z,-1.14
2019-02-05T20:35:38.636Z,-1.13
2019-02-05T20:38:07.542Z,-1.08
2019-02-05T20:40:36.207Z,-0.86
2019-02-05T20:43:05.727Z,-0.99
2019-02-05T20:45:34.465Z,-0.86
2019-02-05T20:48:03.128Z,-0.75
2019-02-05T20:50:31.902Z,-1.01
2019-02-05T20:53:00.565Z,-1.16
2019-02-05T20:55:29.364Z,-1.10
2019-02-05T20:57:58.038Z,-0.89
2019-02-05T21:00:47.462Z,-0.78
2019-02-05T21:03:35.251Z,-0.87
2019-02-05T21:06:04.111Z,-0.88
2019-02-05T21:08:32.810Z,-0.85
2019-02-05T21:11:20.666Z,-0.85
2019-02-05T21:13:49.385Z,-0.78
2019-02-05T21:16:37.181Z,-0.87
2019-02-05T21:19:05.929Z,-0.96
2019-02-05T21:21:34.605Z,-1.07
2019-02-05T21:24:22.607Z,-1.19
2019-02-05T21:26:51.269Z,-1.29
2019-02-05T21:29:19.933Z,-1.23
2019-02-05T21:31:48.749Z,-1.33
2019-02-05T21:34:17.410Z,-1.57
2019-02-05T21:36:46.065Z,-1.64
2019-02-05T21:39:14.829Z,-1.54
2019-02-05T21:41:43.607Z,-1.54
2019-02-05T21:44:12.256Z,-1.54
2019-02-05T21:46:41.483Z,-1.68
2019-02-05T21:49:10.143Z,-1.58
2019-02-05T21:51:40.933Z,-1.40
2019-02-05T21:54:09.326Z,-1.60
2019-02-05T21:56:38.111Z,-1.73
2019-02-05T21:59:06.839Z,-1.75
2019-02-05T22:01:36.031Z,-1.85
2019-02-05T22:04:04.871Z,-1.93
2019-02-05T22:07:13.307Z,-1.94
2019-02-05T22:10:01.419Z,-1.98
2019-02-05T22:12:31.710Z,-1.98
2019-02-05T22:15:00.426Z,-2.03
2019-02-05T22:17:29.313Z,-2.08
2019-02-05T22:19:58.089Z,-2.09
2019-02-05T22:26:01.591Z,-2.14
2019-02-05T22:28:30.311Z,-2.20
2019-02-05T22:31:00.812Z,-2.12
2019-02-05T22:33:29.480Z,-2.20
2019-02-05T22:36:19.181Z,-2.15
2019-02-05T22:38:47.850Z,-2.07
2019-02-05T22:41:18.262Z,-1.94
2019-02-05T22:44:06.081Z,-2.09
2019-02-05T22:46:53.973Z,-2.13
2019-02-05T22:49:41.856Z,-2.14
2019-02-05T22:52:29.689Z,-2.21
2019-02-05T22:54:58.393Z,-2.22
2019-02-05T23:04:11.652Z,-1.91
2019-02-05T23:07:21.814Z,-1.84
2019-02-05T23:10:30.281Z,-2.01
2019-02-05T23:12:58.973Z,-2.22
2019-02-05T23:15:46.893Z,-2.24
2019-02-05T23:18:15.573Z,-2.18
2019-02-05T23:20:44.262Z,-2.25
2019-02-05T23:23:13.326Z,-2.29
2019-02-05T23:25:42.023Z,-2.42
2019-02-05T23:28:10.703Z,-2.46
2019-02-05T23:33:34.264Z,-2.28
2019-02-05T23:36:03.026Z,-2.37
2019-02-05T23:38:31.727Z,-2.51
2019-02-05T23:41:00.580Z,-2.53
2019-02-05T23:43:31.165Z,-2.34
2019-02-05T23:46:01.697Z,-2.39
2019-02-05T23:48:30.235Z,-2.52
2019-02-05T23:50:59.014Z,-2.44
2019-02-05T23:53:27.730Z,-2.30
2019-02-05T23:58:44.026Z,-2.24
